VTSE/CJM METAR and TAF weather

Enter ICAO airport designator
Station Type Date Time Source
VTSE METAR 2019/04/25 12:00 UTC NOAA

VTSE 251200Z 13003KT 090V150 9999 FEW020 31/26 Q1007 NOSIG


Station Type Date Time Source
VTSE Decoded METAR 2019/04/25 12:00 UTC NOAA

Station name not available
Apr 25, 2019 - 08:00 AM EDT / 2019.04.25 1200 UTC
Wind: from the SE (130 degrees) at 3 MPH (3 KT) (direction variable):0
Visibility: greater than 7 mile(s):0
Sky conditions: mostly clear
Temperature: 87 F (31 C)
Heat index: 99.7 F (37.6 C):1
Dew Point: 78 F (26 C)
Relative Humidity: 74%
Pressure (altimeter): 29.74 in. Hg (1007 hPa)
ob: VTSE 251200Z 13003KT 090V150 9999 FEW020 31/26 Q1007 NOSIG
cycle: 12

Station Type Date Time Source
VTSE TAF 2019/04/25 12:00 UTC NOAA

TAF VTSE 251100Z 2512/2612 16005KT 9999 FEW020

Example: see airport list